sensor_id;sensor_type;location;lat;lon;timestamp;pressure;altitude;pressure_sealevel;temperature;humidity
79037;BME280;68434;59.896;30.474;2023-09-12T00:01:08;101608.53;;;19.09;62.89
79037;BME280;68434;59.896;30.474;2023-09-12T00:03:35;101611.16;;;19.03;63.20
79037;BME280;68434;59.896;30.474;2023-09-12T00:06:03;101605.97;;;19.08;63.10
79037;BME280;68434;59.896;30.474;2023-09-12T00:08:31;101613.72;;;19.04;62.98
79037;BME280;68434;59.896;30.474;2023-09-12T00:11:00;101611.16;;;19.03;62.95
79037;BME280;68434;59.896;30.474;2023-09-12T00:13:26;101611.16;;;19.03;62.99
79037;BME280;68434;59.896;30.474;2023-09-12T00:15:55;101609.28;;;19.03;62.87
79037;BME280;68434;59.896;30.474;2023-09-12T00:18:23;101608.31;;;18.96;63.23
79037;BME280;68434;59.896;30.474;2023-09-12T00:20:50;101607.13;;;18.99;63.02
79037;BME280;68434;59.896;30.474;2023-09-12T00:23:20;101608.69;;;18.93;63.03
79037;BME280;68434;59.896;30.474;2023-09-12T00:25:48;101604.44;;;18.91;63.00
79037;BME280;68434;59.896;30.474;2023-09-12T00:28:15;101608.13;;;18.83;63.11
79037;BME280;68434;59.896;30.474;2023-09-12T00:30:43;101611.25;;;18.80;63.13
79037;BME280;68434;59.896;30.474;2023-09-12T00:33:12;101606.31;;;18.76;63.39
79037;BME280;68434;59.896;30.474;2023-09-12T00:35:39;101605.47;;;18.75;63.46
79037;BME280;68434;59.896;30.474;2023-09-12T00:38:08;101610.13;;;18.75;63.30
79037;BME280;68434;59.896;30.474;2023-09-12T00:40:36;101611.69;;;18.69;63.59
79037;BME280;68434;59.896;30.474;2023-09-12T00:43:04;101611.06;;;18.67;63.52
79037;BME280;68434;59.896;30.474;2023-09-12T00:45:32;101610.50;;;18.72;63.40
79037;BME280;68434;59.896;30.474;2023-09-12T00:48:01;101612.00;;;18.74;63.34
79037;BME280;68434;59.896;30.474;2023-09-12T00:50:32;101596.00;;;18.63;63.49
79037;BME280;68434;59.896;30.474;2023-09-12T00:53:01;101613.13;;;18.65;63.69
79037;BME280;68434;59.896;30.474;2023-09-12T00:55:31;101612.16;;;18.58;63.87
79037;BME280;68434;59.896;30.474;2023-09-12T00:58:00;101607.06;;;18.55;63.91
79037;BME280;68434;59.896;30.474;2023-09-12T01:00:28;101608.38;;;18.59;63.80
79037;BME280;68434;59.896;30.474;2023-09-12T01:02:58;101611.31;;;18.57;63.76
79037;BME280;68434;59.896;30.474;2023-09-12T01:05:27;101612.72;;;18.53;63.85
79037;BME280;68434;59.896;30.474;2023-09-12T01:07:59;101610.72;;;18.47;64.14
79037;BME280;68434;59.896;30.474;2023-09-12T01:10:27;101605.88;;;18.49;64.09
79037;BME280;68434;59.896;30.474;2023-09-12T01:12:54;101622.34;;;18.49;64.04
79037;BME280;68434;59.896;30.474;2023-09-12T01:15:22;101629.78;;;18.41;64.12
79037;BME280;68434;59.896;30.474;2023-09-12T01:17:49;101620.06;;;18.38;64.33
79037;BME280;68434;59.896;30.474;2023-09-12T01:20:22;101620.69;;;18.40;64.36
79037;BME280;68434;59.896;30.474;2023-09-12T01:23:11;101618.31;;;18.37;64.60
79037;BME280;68434;59.896;30.474;2023-09-12T01:26:09;101622.25;;;18.35;64.67
79037;BME280;68434;59.896;30.474;2023-09-12T01:28:47;101597.66;;;18.27;64.22
79037;BME280;68434;59.896;30.474;2023-09-12T01:31:19;101620.06;;;18.38;64.04
79037;BME280;68434;59.896;30.474;2023-09-12T01:33:47;101619.19;;;18.38;64.20
79037;BME280;68434;59.896;30.474;2023-09-12T01:36:15;101619.19;;;18.38;64.33
79037;BME280;68434;59.896;30.474;2023-09-12T01:38:43;101620.25;;;18.37;64.32
79037;BME280;68434;59.896;30.474;2023-09-12T01:41:11;101615.94;;;18.34;64.25
79037;BME280;68434;59.896;30.474;2023-09-12T01:43:39;101618.19;;;18.31;64.38
79037;BME280;68434;59.896;30.474;2023-09-12T01:46:10;101613.91;;;18.28;64.38
79037;BME280;68434;59.896;30.474;2023-09-12T01:48:37;101607.47;;;18.21;64.46
79037;BME280;68434;59.896;30.474;2023-09-12T01:51:07;101600.38;;;18.12;64.64
79037;BME280;68434;59.896;30.474;2023-09-12T01:53:35;101610.78;;;18.17;64.77
79037;BME280;68434;59.896;30.474;2023-09-12T01:56:03;101609.81;;;18.10;64.57
79037;BME280;68434;59.896;30.474;2023-09-12T01:58:31;101613.88;;;18.14;64.77
79037;BME280;68434;59.896;30.474;2023-09-12T02:00:58;101601.03;;;18.14;64.57
79037;BME280;68434;59.896;30.474;2023-09-12T02:03:27;101604.38;;;18.24;64.38
79037;BME280;68434;59.896;30.474;2023-09-12T02:05:54;101609.53;;;18.19;64.36
79037;BME280;68434;59.896;30.474;2023-09-12T02:08:22;101598.94;;;18.16;64.49
79037;BME280;68434;59.896;30.474;2023-09-12T02:10:50;101606.22;;;18.09;64.69
79037;BME280;68434;59.896;30.474;2023-09-12T02:13:17;101612.91;;;18.07;64.66
79037;BME280;68434;59.896;30.474;2023-09-12T02:15:45;101605.16;;;18.10;64.45
79037;BME280;68434;59.896;30.474;2023-09-12T02:18:12;101591.91;;;17.99;64.53
79037;BME280;68434;59.896;30.474;2023-09-12T02:20:41;101608.28;;;18.07;64.68
79037;BME280;68434;59.896;30.474;2023-09-12T02:23:12;101607.91;;;18.10;64.17
79037;BME280;68434;59.896;30.474;2023-09-12T02:25:39;101588.88;;;17.94;64.51
79037;BME280;68434;59.896;30.474;2023-09-12T02:28:06;101600.97;;;18.00;64.48
79037;BME280;68434;59.896;30.474;2023-09-12T02:30:37;101601.81;;;18.00;64.64
79037;BME280;68434;59.896;30.474;2023-09-12T02:33:05;101602.56;;;17.94;64.60
79037;BME280;68434;59.896;30.474;2023-09-12T02:35:32;101596.63;;;17.91;64.72
79037;BME280;68434;59.896;30.474;2023-09-12T02:38:01;101592.69;;;17.85;64.74
79037;BME280;68434;59.896;30.474;2023-09-12T02:40:29;101579.91;;;17.78;64.84
79037;BME280;68434;59.896;30.474;2023-09-12T02:42:56;101596.13;;;17.87;64.73
79037;BME280;68434;59.896;30.474;2023-09-12T02:45:24;101590.81;;;17.86;64.72
79037;BME280;68434;59.896;30.474;2023-09-12T02:47:51;101588.22;;;17.92;64.60
79037;BME280;68434;59.896;30.474;2023-09-12T02:50:18;101594.59;;;17.85;64.50
79037;BME280;68434;59.896;30.474;2023-09-12T02:52:46;101593.69;;;17.92;64.65
79037;BME280;68434;59.896;30.474;2023-09-12T02:55:15;101602.28;;;17.89;64.55
79037;BME280;68434;59.896;30.474;2023-09-12T02:57:42;101592.88;;;17.84;64.57
79037;BME280;68434;59.896;30.474;2023-09-12T03:00:11;101601.63;;;17.79;64.78
79037;BME280;68434;59.896;30.474;2023-09-12T03:02:40;101596.84;;;17.81;64.68
79037;BME280;68434;59.896;30.474;2023-09-12T03:05:07;101597.69;;;17.82;64.89
79037;BME280;68434;59.896;30.474;2023-09-12T03:07:35;101597.69;;;17.82;64.58
79037;BME280;68434;59.896;30.474;2023-09-12T03:10:03;101590.50;;;17.81;64.72
79037;BME280;68434;59.896;30.474;2023-09-12T03:12:32;101588.63;;;17.81;64.51
79037;BME280;68434;59.896;30.474;2023-09-12T03:15:00;101591.72;;;17.78;64.98
79037;BME280;68434;59.896;30.474;2023-09-12T03:17:30;101597.38;;;17.77;65.17
79037;BME280;68434;59.896;30.474;2023-09-12T03:19:57;101582.00;;;17.76;64.83
79037;BME280;68434;59.896;30.474;2023-09-12T03:22:26;101593.41;;;17.79;64.64
79037;BME280;68434;59.896;30.474;2023-09-12T03:24:53;101595.88;;;17.74;64.86
79037;BME280;68434;59.896;30.474;2023-09-12T03:27:22;101592.25;;;17.74;65.04
79037;BME280;68434;59.896;30.474;2023-09-12T03:29:51;101600.53;;;17.66;64.95
79037;BME280;68434;59.896;30.474;2023-09-12T03:32:19;101597.06;;;17.72;65.07
79037;BME280;68434;59.896;30.474;2023-09-12T03:34:46;101598.28;;;17.69;64.95
79037;BME280;68434;59.896;30.474;2023-09-12T03:37:14;101597.59;;;17.67;65.11
79037;BME280;68434;59.896;30.474;2023-09-12T03:39:41;101592.66;;;17.63;65.15
79037;BME280;68434;59.896;30.474;2023-09-12T03:42:09;101593.53;;;17.63;65.29
79037;BME280;68434;59.896;30.474;2023-09-12T03:44:36;101597.91;;;17.72;65.24
79037;BME280;68434;59.896;30.474;2023-09-12T03:47:05;101597.25;;;17.70;65.11
79037;BME280;68434;59.896;30.474;2023-09-12T03:49:33;101593.53;;;17.63;65.11
79037;BME280;68434;59.896;30.474;2023-09-12T03:52:00;101594.03;;;17.67;65.31
79037;BME280;68434;59.896;30.474;2023-09-12T03:54:28;101595.91;;;17.66;65.32
79037;BME280;68434;59.896;30.474;2023-09-12T03:56:56;101593.34;;;17.65;65.33
79037;BME280;68434;59.896;30.474;2023-09-12T03:59:23;101596.81;;;17.59;65.47
79037;BME280;68434;59.896;30.474;2023-09-12T04:01:51;101602.25;;;17.67;65.42
79037;BME280;68434;59.896;30.474;2023-09-12T04:04:20;101593.50;;;17.71;65.32
79037;BME280;68434;59.896;30.474;2023-09-12T04:06:47;101594.50;;;17.70;65.18
79037;BME280;68434;59.896;30.474;2023-09-12T04:09:15;101592.44;;;17.72;65.27
79037;BME280;68434;59.896;30.474;2023-09-12T04:11:43;101590.88;;;17.78;64.89
79037;BME280;68434;59.896;30.474;2023-09-12T04:14:11;101591.88;;;17.85;65.04
79037;BME280;68434;59.896;30.474;2023-09-12T04:16:38;101582.38;;;17.73;64.61
79037;BME280;68434;59.896;30.474;2023-09-12T04:19:05;101591.53;;;17.80;65.27
79037;BME280;68434;59.896;30.474;2023-09-12T04:21:34;101594.97;;;17.82;65.29
79037;BME280;68434;59.896;30.474;2023-09-12T04:24:02;101596.25;;;17.94;64.95
79037;BME280;68434;59.896;30.474;2023-09-12T04:26:30;101592.69;;;17.85;65.03
79037;BME280;68434;59.896;30.474;2023-09-12T04:28:57;101591.19;;;17.83;65.25
79037;BME280;68434;59.896;30.474;2023-09-12T04:31:25;101591.03;;;17.76;65.29
79037;BME280;68434;59.896;30.474;2023-09-12T04:33:52;101590.41;;;17.74;65.59
79037;BME280;68434;59.896;30.474;2023-09-12T04:36:20;101590.22;;;17.76;65.30
79037;BME280;68434;59.896;30.474;2023-09-12T04:38:49;101584.75;;;17.76;65.30
79037;BME280;68434;59.896;30.474;2023-09-12T04:41:17;101587.84;;;17.73;65.55
79037;BME280;68434;59.896;30.474;2023-09-12T04:43:44;101579.72;;;17.79;65.16
79037;BME280;68434;59.896;30.474;2023-09-12T04:46:12;101582.19;;;17.74;65.31
79037;BME280;68434;59.896;30.474;2023-09-12T04:48:40;101583.88;;;17.75;65.69
79037;BME280;68434;59.896;30.474;2023-09-12T04:51:07;101583.16;;;17.81;65.58
79037;BME280;68434;59.896;30.474;2023-09-12T04:53:35;101584.25;;;17.95;65.09
79037;BME280;68434;59.896;30.474;2023-09-12T04:56:05;101578.97;;;17.93;65.15
79037;BME280;68434;59.896;30.474;2023-09-12T04:58:35;101581.16;;;17.98;65.02
79037;BME280;68434;59.896;30.474;2023-09-12T05:01:03;101581.31;;;17.96;65.06
79037;BME280;68434;59.896;30.474;2023-09-12T05:03:30;101585.41;;;18.00;65.16
79037;BME280;68434;59.896;30.474;2023-09-12T05:05:59;101587.78;;;18.03;65.15
79037;BME280;68434;59.896;30.474;2023-09-12T05:08:26;101589.59;;;18.11;65.07
79037;BME280;68434;59.896;30.474;2023-09-12T05:10:54;101578.69;;;18.03;65.32
79037;BME280;68434;59.896;30.474;2023-09-12T05:13:23;101580.88;;;18.07;65.49
79037;BME280;68434;59.896;30.474;2023-09-12T05:15:50;101581.69;;;18.16;65.29
79037;BME280;68434;59.896;30.474;2023-09-12T05:18:18;101583.88;;;18.20;65.23
79037;BME280;68434;59.896;30.474;2023-09-12T05:20:45;101580.78;;;18.23;65.35
79037;BME280;68434;59.896;30.474;2023-09-12T05:23:13;101583.38;;;18.17;65.65
79037;BME280;68434;59.896;30.474;2023-09-12T05:25:40;101582.66;;;18.23;65.62
79037;BME280;68434;59.896;30.474;2023-09-12T05:28:08;101582.59;;;18.31;65.42
79037;BME280;68434;59.896;30.474;2023-09-12T05:30:37;101589.06;;;18.30;65.64
79037;BME280;68434;59.896;30.474;2023-09-12T05:33:04;101584.44;;;18.38;65.53
79037;BME280;68434;59.896;30.474;2023-09-12T05:35:32;101584.72;;;18.43;65.48
79037;BME280;68434;59.896;30.474;2023-09-12T05:37:59;101585.00;;;18.48;65.26
79037;BME280;68434;59.896;30.474;2023-09-12T05:40:27;101600.22;;;18.51;65.30
79037;BME280;68434;59.896;30.474;2023-09-12T05:42:54;101591.63;;;18.54;65.26
79037;BME280;68434;59.896;30.474;2023-09-12T05:45:22;101591.56;;;18.62;65.23
79037;BME280;68434;59.896;30.474;2023-09-12T05:47:51;101596.28;;;18.68;65.24
79037;BME280;68434;59.896;30.474;2023-09-12T05:50:18;101595.44;;;18.67;65.24
79037;BME280;68434;59.896;30.474;2023-09-12T05:52:46;101590.94;;;18.75;65.16
79037;BME280;68434;59.896;30.474;2023-09-12T05:55:14;101591.88;;;18.82;64.92
79037;BME280;68434;59.896;30.474;2023-09-12T05:57:42;101594.03;;;18.86;64.87
79037;BME280;68434;59.896;30.474;2023-09-12T06:00:10;101590.44;;;18.86;65.05
79037;BME280;68434;59.896;30.474;2023-09-12T06:02:38;101577.31;;;18.96;64.69
79037;BME280;68434;59.896;30.474;2023-09-12T06:05:08;101585.38;;;18.97;64.54
79037;BME280;68434;59.896;30.474;2023-09-12T06:07:36;101584.41;;;19.05;64.39
79037;BME280;68434;59.896;30.474;2023-09-12T06:10:05;101580.06;;;19.10;64.30
79037;BME280;68434;59.896;30.474;2023-09-12T06:12:32;101587.53;;;19.16;64.22
79037;BME280;68434;59.896;30.474;2023-09-12T06:15:03;101579.09;;;19.18;64.21
79037;BME280;68434;59.896;30.474;2023-09-12T06:17:34;101583.63;;;19.25;63.69
79037;BME280;68434;59.896;30.474;2023-09-12T06:20:03;101576.16;;;19.19;63.77
79037;BME280;68434;59.896;30.474;2023-09-12T06:22:34;101584.50;;;19.26;63.64
79037;BME280;68434;59.896;30.474;2023-09-12T06:25:02;101584.34;;;19.27;63.75
79037;BME280;68434;59.896;30.474;2023-09-12T06:27:32;101578.84;;;19.27;63.60
79037;BME280;68434;59.896;30.474;2023-09-12T06:30:00;101576.47;;;19.24;63.93
79037;BME280;68434;59.896;30.474;2023-09-12T06:32:33;101575.72;;;19.30;63.79
79037;BME280;68434;59.896;30.474;2023-09-12T06:35:01;101566.06;;;19.34;63.50
79037;BME280;68434;59.896;30.474;2023-09-12T06:37:31;101570.88;;;19.47;63.27
79037;BME280;68434;59.896;30.474;2023-09-12T06:40:00;101568.75;;;19.49;63.42
79037;BME280;68434;59.896;30.474;2023-09-12T06:42:29;101562.34;;;19.42;63.49
79037;BME280;68434;59.896;30.474;2023-09-12T06:44:57;101568.13;;;19.47;63.69
79037;BME280;68434;59.896;30.474;2023-09-12T06:47:24;101568.38;;;19.52;63.79
79037;BME280;68434;59.896;30.474;2023-09-12T06:49:52;101568.38;;;19.52;64.00
79037;BME280;68434;59.896;30.474;2023-09-12T06:52:19;101574.53;;;19.54;63.97
79037;BME280;68434;59.896;30.474;2023-09-12T06:54:46;101566.38;;;19.60;63.92
79037;BME280;68434;59.896;30.474;2023-09-12T06:57:15;101570.03;;;19.67;63.99
79037;BME280;68434;59.896;30.474;2023-09-12T06:59:43;101575.81;;;19.72;63.87
79037;BME280;68434;59.896;30.474;2023-09-12T07:02:11;101563.84;;;19.80;63.66
79037;BME280;68434;59.896;30.474;2023-09-12T07:04:38;101568.38;;;19.87;63.46
79037;BME280;68434;59.896;30.474;2023-09-12T07:07:06;101573.47;;;19.90;63.67
79037;BME280;68434;59.896;30.474;2023-09-12T07:09:33;101572.22;;;19.93;63.51
79037;BME280;68434;59.896;30.474;2023-09-12T07:12:00;101567.00;;;19.98;63.59
79037;BME280;68434;59.896;30.474;2023-09-12T07:14:30;101569.34;;;20.01;63.63
79037;BME280;68434;59.896;30.474;2023-09-12T07:16:57;101566.84;;;20.06;63.40
79037;BME280;68434;59.896;30.474;2023-09-12T07:19:25;101562.22;;;20.06;63.40
79037;BME280;68434;59.896;30.474;2023-09-12T07:21:52;101562.31;;;20.13;63.40
79037;BME280;68434;59.896;30.474;2023-09-12T07:24:19;101556.88;;;20.19;63.03
79037;BME280;68434;59.896;30.474;2023-09-12T07:26:47;101563.28;;;20.26;62.97
79037;BME280;68434;59.896;30.474;2023-09-12T07:29:14;101574.28;;;20.26;62.94
79037;BME280;68434;59.896;30.474;2023-09-12T07:31:43;101566.06;;;20.33;62.67
79037;BME280;68434;59.896;30.474;2023-09-12T07:34:11;101562.94;;;20.36;62.71
79037;BME280;68434;59.896;30.474;2023-09-12T07:36:40;101563.19;;;20.41;62.70
79037;BME280;68434;59.896;30.474;2023-09-12T07:39:08;101564.50;;;20.45;62.77
79037;BME280;68434;59.896;30.474;2023-09-12T07:41:36;101559.91;;;20.52;62.58
79037;BME280;68434;59.896;30.474;2023-09-12T07:44:04;101561.41;;;20.55;62.15
79037;BME280;68434;59.896;30.474;2023-09-12T07:46:33;101561.81;;;20.58;62.36
79037;BME280;68434;59.896;30.474;2023-09-12T07:49:02;101555.91;;;20.55;62.36
79037;BME280;68434;59.896;30.474;2023-09-12T07:51:30;101563.56;;;20.59;62.09
79037;BME280;68434;59.896;30.474;2023-09-12T07:53:57;101564.63;;;20.65;61.99
79037;BME280;68434;59.896;30.474;2023-09-12T07:56:25;101567.44;;;20.71;61.85
79037;BME280;68434;59.896;30.474;2023-09-12T07:58:52;101571.69;;;20.74;61.85
79037;BME280;68434;59.896;30.474;2023-09-12T08:01:21;101566.44;;;20.79;62.05
79037;BME280;68434;59.896;30.474;2023-09-12T08:03:49;101567.94;;;20.81;61.82
79037;BME280;68434;59.896;30.474;2023-09-12T08:06:18;101567.31;;;20.86;61.63
79037;BME280;68434;59.896;30.474;2023-09-12T08:08:45;101563.97;;;20.90;61.78
79037;BME280;68434;59.896;30.474;2023-09-12T08:11:12;101565.44;;;20.93;61.85
79037;BME280;68434;59.896;30.474;2023-09-12T08:13:40;101563.38;;;20.95;61.51
79037;BME280;68434;59.896;30.474;2023-09-12T08:16:08;101553.88;;;20.97;61.31
79037;BME280;68434;59.896;30.474;2023-09-12T08:18:35;101560.03;;;20.99;61.52
79037;BME280;68434;59.896;30.474;2023-09-12T08:21:02;101560.47;;;21.03;61.34
79037;BME280;68434;59.896;30.474;2023-09-12T08:23:31;101557.31;;;21.06;61.33
79037;BME280;68434;59.896;30.474;2023-09-12T08:25:59;101549.28;;;21.04;60.99
79037;BME280;68434;59.896;30.474;2023-09-12T08:28:26;101555.91;;;21.16;60.92
79037;BME280;68434;59.896;30.474;2023-09-12T08:30:54;101550.59;;;21.15;60.86
79037;BME280;68434;59.896;30.474;2023-09-12T08:33:22;101549.75;;;21.14;60.70
79037;BME280;68434;59.896;30.474;2023-09-12T08:35:49;101540.41;;;21.15;60.29
79037;BME280;68434;59.896;30.474;2023-09-12T08:38:17;101543.81;;;21.17;60.37
79037;BME280;68434;59.896;30.474;2023-09-12T08:40:49;101540.88;;;21.19;60.31
79037;BME280;68434;59.896;30.474;2023-09-12T08:43:17;101536.03;;;21.21;59.92
79037;BME280;68434;59.896;30.474;2023-09-12T08:45:46;101527.31;;;21.17;60.17
79037;BME280;68434;59.896;30.474;2023-09-12T08:48:14;101537.09;;;21.26;59.95
79037;BME280;68434;59.896;30.474;2023-09-12T08:50:42;101528.84;;;21.26;59.85
79037;BME280;68434;59.896;30.474;2023-09-12T08:53:11;101531.38;;;21.28;59.98
79037;BME280;68434;59.896;30.474;2023-09-12T08:55:39;101521.66;;;21.25;59.70
79037;BME280;68434;59.896;30.474;2023-09-12T08:58:08;101535.22;;;21.33;59.45
79037;BME280;68434;59.896;30.474;2023-09-12T09:00:36;101520.63;;;21.33;59.65
79037;BME280;68434;59.896;30.474;2023-09-12T09:03:05;101527.41;;;21.37;59.64
79037;BME280;68434;59.896;30.474;2023-09-12T09:05:35;101533.56;;;21.39;59.76
79037;BME280;68434;59.896;30.474;2023-09-12T09:08:04;101524.22;;;21.40;59.60
79037;BME280;68434;59.896;30.474;2023-09-12T09:10:33;101534.16;;;21.41;59.24
79037;BME280;68434;59.896;30.474;2023-09-12T09:13:01;101526.34;;;21.44;59.20
79037;BME280;68434;59.896;30.474;2023-09-12T09:15:31;101525.28;;;21.45;59.14
79037;BME280;68434;59.896;30.474;2023-09-12T09:18:02;101519.59;;;21.47;59.32
79037;BME280;68434;59.896;30.474;2023-09-12T09:20:34;101525.75;;;21.49;59.35
79037;BME280;68434;59.896;30.474;2023-09-12T09:23:03;101522.56;;;21.52;59.45
79037;BME280;68434;59.896;30.474;2023-09-12T09:25:32;101523.44;;;21.52;59.53
79037;BME280;68434;59.896;30.474;2023-09-12T09:28:03;101524.06;;;21.54;59.43
79037;BME280;68434;59.896;30.474;2023-09-12T09:30:51;101522.41;;;21.60;59.68
79037;BME280;68434;59.896;30.474;2023-09-12T09:33:21;101526.41;;;21.64;59.62
79037;BME280;68434;59.896;30.474;2023-09-12T09:35:49;101521.56;;;21.66;59.36
79037;BME280;68434;59.896;30.474;2023-09-12T09:38:19;101521.34;;;21.67;59.42
79037;BME280;68434;59.896;30.474;2023-09-12T09:40:49;101529.66;;;21.74;59.29
79037;BME280;68434;59.896;30.474;2023-09-12T09:43:19;101527.56;;;21.82;59.28
79037;BME280;68434;59.896;30.474;2023-09-12T09:45:47;101528.81;;;21.80;59.16
79037;BME280;68434;59.896;30.474;2023-09-12T09:48:20;101513.50;;;21.71;58.88
79037;BME280;68434;59.896;30.474;2023-09-12T09:50:48;101527.97;;;21.86;58.89
79037;BME280;68434;59.896;30.474;2023-09-12T09:53:15;101532.22;;;21.95;58.69
79037;BME280;68434;59.896;30.474;2023-09-12T09:55:43;101524.84;;;22.02;58.54
79037;BME280;68434;59.896;30.474;2023-09-12T09:58:15;101520.59;;;22.12;58.09
79037;BME280;68434;59.896;30.474;2023-09-12T10:00:44;101528.44;;;22.15;57.96
79037;BME280;68434;59.896;30.474;2023-09-12T10:03:15;101491.13;;;22.00;58.29
79037;BME280;68434;59.896;30.474;2023-09-12T10:05:47;101530.97;;;22.23;58.14
79037;BME280;68434;59.896;30.474;2023-09-12T10:08:19;101529.31;;;22.29;58.02
79037;BME280;68434;59.896;30.474;2023-09-12T10:10:48;101521.22;;;22.34;57.60
79037;BME280;68434;59.896;30.474;2023-09-12T10:13:16;101533.09;;;22.35;57.61
79037;BME280;68434;59.896;30.474;2023-09-12T10:15:47;101523.97;;;22.34;57.52
79037;BME280;68434;59.896;30.474;2023-09-12T10:18:19;101518.03;;;22.37;57.37
79037;BME280;68434;59.896;30.474;2023-09-12T10:20:52;101519.75;;;22.38;57.19
79037;BME280;68434;59.896;30.474;2023-09-12T10:23:44;101518.47;;;22.41;57.30
79037;BME280;68434;59.896;30.474;2023-09-12T10:26:15;101522.69;;;22.43;57.27
79037;BME280;68434;59.896;30.474;2023-09-12T10:28:42;101526.75;;;22.54;57.09
79037;BME280;68434;59.896;30.474;2023-09-12T10:31:11;101518.06;;;22.50;57.09
79037;BME280;68434;59.896;30.474;2023-09-12T10:33:39;101516.16;;;22.51;57.03
79037;BME280;68434;59.896;30.474;2023-09-12T10:36:09;101519.53;;;22.53;57.33
79037;BME280;68434;59.896;30.474;2023-09-12T10:38:42;101522.94;;;22.55;57.68
79037;BME280;68434;59.896;30.474;2023-09-12T10:41:13;101519.97;;;22.56;57.80
79037;BME280;68434;59.896;30.474;2023-09-12T10:43:42;101525.06;;;22.59;57.89
79037;BME280;68434;59.896;30.474;2023-09-12T10:46:12;101523.78;;;22.62;58.21
79037;BME280;68434;59.896;30.474;2023-09-12T10:48:40;101519.34;;;22.61;58.53
79037;BME280;68434;59.896;30.474;2023-09-12T10:51:10;101512.09;;;22.60;58.12
79037;BME280;68434;59.896;30.474;2023-09-12T10:53:38;101532.06;;;22.68;58.04
79037;BME280;68434;59.896;30.474;2023-09-12T10:56:16;101534.81;;;22.68;57.96
79037;BME280;68434;59.896;30.474;2023-09-12T10:59:10;101523.97;;;22.73;57.70
79037;BME280;68434;59.896;30.474;2023-09-12T11:01:39;101520.75;;;22.83;57.26
79037;BME280;68434;59.896;30.474;2023-09-12T11:04:32;101527.78;;;22.79;57.10
79037;BME280;68434;59.896;30.474;2023-09-12T11:07:32;101520.56;;;22.78;57.04
79037;BME280;68434;59.896;30.474;2023-09-12T11:10:19;101523.31;;;22.78;56.45
79037;BME280;68434;59.896;30.474;2023-09-12T11:12:48;101522.47;;;22.77;56.58
79037;BME280;68434;59.896;30.474;2023-09-12T11:15:16;101523.53;;;22.76;56.72
79037;BME280;68434;59.896;30.474;2023-09-12T11:18:05;101519.50;;;22.79;56.56
79037;BME280;68434;59.896;30.474;2023-09-12T11:20:51;101517.78;;;22.78;56.28
79037;BME280;68434;59.896;30.474;2023-09-12T11:23:21;101516.53;;;22.80;56.12
79037;BME280;68434;59.896;30.474;2023-09-12T11:26:02;101522.06;;;22.80;56.19
79037;BME280;68434;59.896;30.474;2023-09-12T11:28:33;101507.41;;;22.73;55.71
79037;BME280;68434;59.896;30.474;2023-09-12T11:32:50;101512.50;;;22.83;55.91
79037;BME280;68434;59.896;30.474;2023-09-12T11:35:23;101513.13;;;22.85;55.90
79037;BME280;68434;59.896;30.474;2023-09-12T11:37:53;101495.72;;;22.78;56.05
79037;BME280;68434;59.896;30.474;2023-09-12T11:40:23;101504.41;;;22.88;55.93
79037;BME280;68434;59.896;30.474;2023-09-12T11:42:52;101482.16;;;22.76;56.27
79037;BME280;68434;59.896;30.474;2023-09-12T11:45:20;101488.69;;;22.88;56.32
79037;BME280;68434;59.896;30.474;2023-09-12T11:47:50;101501.44;;;22.89;56.44
79037;BME280;68434;59.896;30.474;2023-09-12T11:50:29;101491.44;;;22.88;56.54
79037;BME280;68434;59.896;30.474;2023-09-12T11:53:03;101502.09;;;22.85;56.46
79037;BME280;68434;59.896;30.474;2023-09-12T11:55:34;101496.16;;;22.81;56.51
79037;BME280;68434;59.896;30.474;2023-09-12T11:58:03;101489.16;;;22.79;56.67
79037;BME280;68434;59.896;30.474;2023-09-12T12:00:31;101488.50;;;22.77;56.59
79037;BME280;68434;59.896;30.474;2023-09-12T12:03:01;101486.63;;;22.77;56.33
79037;BME280;68434;59.896;30.474;2023-09-12T12:05:30;101482.16;;;22.76;56.48
79037;BME280;68434;59.896;30.474;2023-09-12T12:07:58;101490.19;;;22.78;56.41
79037;BME280;68434;59.896;30.474;2023-09-12T12:10:26;101480.47;;;22.75;56.17
79037;BME280;68434;59.896;30.474;2023-09-12T12:12:54;101480.66;;;22.80;56.41
79037;BME280;68434;59.896;30.474;2023-09-12T12:15:21;101480.66;;;22.80;56.02
79037;BME280;68434;59.896;30.474;2023-09-12T12:17:54;101490.41;;;22.83;56.51
79037;BME280;68434;59.896;30.474;2023-09-12T12:20:23;101479.38;;;22.83;56.59
79037;BME280;68434;59.896;30.474;2023-09-12T12:22:51;101477.03;;;22.86;57.11
79037;BME280;68434;59.896;30.474;2023-09-12T12:25:21;101485.94;;;22.88;57.06
79037;BME280;68434;59.896;30.474;2023-09-12T12:27:50;101483.81;;;22.90;57.22
79037;BME280;68434;59.896;30.474;2023-09-12T12:30:18;101479.75;;;22.93;57.05
79037;BME280;68434;59.896;30.474;2023-09-12T12:32:47;101461.94;;;22.89;56.63
79037;BME280;68434;59.896;30.474;2023-09-12T12:35:19;101471.47;;;22.99;56.48
79037;BME280;68434;59.896;30.474;2023-09-12T12:37:49;101466.38;;;22.96;56.76
79037;BME280;68434;59.896;30.474;2023-09-12T12:40:17;101470.59;;;22.99;56.39
79037;BME280;68434;59.896;30.474;2023-09-12T12:42:46;101462.09;;;23.00;56.18
79037;BME280;68434;59.896;30.474;2023-09-12T12:45:13;101465.94;;;23.06;55.90
79037;BME280;68434;59.896;30.474;2023-09-12T12:47:40;101469.94;;;23.10;55.57
79037;BME280;68434;59.896;30.474;2023-09-12T12:50:10;101468.91;;;23.04;55.40
79037;BME280;68434;59.896;30.474;2023-09-12T12:52:37;101477.19;;;23.04;55.30